Latest Coastal Weather Observations for Wynyard

IDV60701

Issued at 4:22 am EST Tuesday 28 June 2022 (issued every 10 minutes, with the page automatically refreshed every 10 minutes)

About coastal observations | Map of coastal stations | Coastal observations for VIC | Marine services | Other Formats
Station Details ID: 091107 Name: WYNYARD AIRPORT Lat: -41.00 Lon: 145.73 Height: 12.0 m
Data from the previous 72 hours. | See also: Recent months at Wynyard
Date/Time
EST
Wind Sea
Height
m
Swell Vis
km
Cloud Weather Temp
°C
Press
MSL
hPa
Rain since
9am
mm
Dir  Spd
kts
Gust
kts
Height
m
Period
s
Dir
28/04:00am NW 5 6 - - - - 10 Partly cloudy - 5.6 1028.4 0.0
28/03:35am SW 4 6 - - - - 10 Partly cloudy - 5.4 1028.7 0.0
28/03:30am WSW 5 6 - - - - 10 Partly cloudy - 5.3 1028.7 0.0
28/03:13am WSW 6 7 - - - - 5 Partly cloudy - 5.1 1028.8 0.0
28/03:00am W 5 6 - - - - 10 Cloudy - 4.3 1029.0 0.0
28/02:30am WNW 5 7 - - - - 10 Partly cloudy - 4.4 1029.1 0.0
28/02:00am W 4 5 - - - - 10 Partly cloudy - 4.1 1029.1 0.0
28/01:30am W 6 7 - - - - 10 Partly cloudy - 4.8 1029.3 0.0
28/01:00am WNW 5 7 - - - - 10 Partly cloudy - 4.5 1029.5 0.0
28/12:30am W 5 6 - - - - 10 Cloudy - 4.9 1029.7 0.0
28/12:00am WNW 5 5 - - - - 10 Cloudy - 4.9 1029.8 0.0
 
Date/Time
EST
Wind Sea
Height
m
Swell Vis
km
Cloud Weather Temp
°C
Press
MSL
hPa
Rain since
9am
mm
Dir  Spd
kts
Gust
kts
Height
m
Period
s
Dir
27/11:30pm WSW 1 4 - - - - 10 Partly cloudy - 4.1 1030.1 0.0
27/11:00pm WNW 4 5 - - - - 10 Cloudy - 4.6 1030.3 0.0
27/10:30pm WNW 5 7 - - - - 10 Cloudy - 4.4 1030.4 0.0
27/10:00pm W 6 7 - - - - 10 Partly cloudy - 3.6 1030.7 0.0
27/09:30pm SW 6 7 - - - - 10 - - 2.8 1030.7 0.0
27/09:00pm NW 3 5 - - - - 10 - - 4.0 1030.8 0.0
27/08:30pm WSW 5 5 - - - - 7 - - 3.3 1030.7 0.0
27/08:00pm W 3 4 - - - - 10 - - 4.4 1030.8 0.0
27/07:30pm CALM 0 4 - - - - 10 - - 5.3 1030.8 0.0
27/07:00pm CALM 0 3 - - - - 10 - - 4.4 1030.8 0.0
27/06:30pm CALM 0 0 - - - - 10 - - 4.8 1030.8 0.0
27/06:00pm CALM 0 0 - - - - 10 - - 6.2 1030.6 0.0
27/05:30pm CALM 0 0 - - - - 10 - - 7.0 1030.2 0.0
27/05:00pm SW 4 5 - - - - 10 - - 7.0 1030.4 0.0
27/04:30pm W 4 5 - - - - 10 - - 8.5 1029.9 0.0
27/04:00pm WSW 7 8 - - - - 10 - - 9.3 1030.1 0.0
27/03:30pm W 7 9 - - - - 10 Partly cloudy - 10.9 1030.2 0.0
27/03:00pm WSW 6 10 - - - - 10 Mostly clear - 11.4 1029.9 0.0
27/02:30pm SW 7 9 - - - - 10 Partly cloudy - 11.0 1029.8 0.0
27/02:00pm WSW 8 11 - - - - 10 Partly cloudy - 11.1 1029.8 0.0
27/01:30pm SW 7 11 - - - - 10 Cloudy - 11.6 1029.8 0.0
27/01:00pm SW 7 11 - - - - 10 Partly cloudy - 11.1 1030.2 0.0
27/12:30pm SW 9 14 - - - - 10 - - 11.0 1030.4 0.0
27/12:00pm WSW 10 13 - - - - 10 - - 10.3 1030.5 0.0
27/11:30am SSW 8 12 - - - - 10 - - 10.3 1030.3 0.0
27/11:00am SSW 2 5 - - - - 10 - - 10.2 1030.9 0.0
27/10:30am NNE 4 8 - - - - 10 - - 9.7 1031.0 0.0
27/10:00am SW 7 10 - - - - 10 - - 8.6 1030.3 0.0
27/09:30am SW 12 17 - - - - 10 - - 7.6 1029.9 0.0
27/09:00am WSW 10 12 - - - - 10 - - 6.5 1029.5 0.2
27/08:30am SW 9 12 - - - - 10 - - 5.0 1029.6 0.2
27/08:00am WSW 7 9 - - - - 10 - - 3.2 1029.2 0.2
27/07:30am SW 7 11 - - - - 10 - - 4.1 1028.7 0.2
27/07:00am WSW 13 15 - - - - 10 - - 4.1 1028.2 0.2
27/06:30am WSW 13 16 - - - - 10 - - 3.7 1027.8 0.0
27/06:00am WSW 12 13 - - - - 10 - - 3.7 1027.6 0.0
27/05:30am WSW 13 15 - - - - 10 - - 3.6 1027.1 0.0
27/05:00am WSW 11 12 - - - - 10 - - 3.0 1026.9 0.0
27/04:30am W 11 13 - - - - 10 - - 3.3 1026.8 0.0
27/04:00am W 9 10 - - - - 10 - - 2.7 1026.5 0.0
27/03:30am WSW 10 11 - - - - 10 - - 2.5 1026.6 0.0
27/03:00am W 10 11 - - - - 10 - - 2.2 1026.6 0.0
27/02:30am W 7 8 - - - - 10 - - 0.7 1026.4 0.0
27/02:00am WSW 7 8 - - - - 10 - - 0.0 1026.2 0.0
27/01:30am WSW 5 6 - - - - 10 - - 0.1 1026.0 0.0
27/01:00am W 5 6 - - - - 10 - - 0.0 1025.8 0.0
27/12:30am WSW 6 7 - - - - 10 - - 0.7 1025.6 0.0
27/12:00am SW 5 6 - - - - 10 - - 1.0 1025.4 0.0
 
Date/Time
EST
Wind Sea
Height
m
Swell Vis
km
Cloud Weather Temp
°C
Press
MSL
hPa
Rain since
9am
mm
Dir  Spd
kts
Gust
kts
Height
m
Period
s
Dir
26/11:30pm S 3 6 - - - - 10 - - 2.1 1025.5 0.0
26/11:00pm CALM 0 3 - - - - 10 - - 2.1 1025.1 0.0
26/10:30pm CALM 0 0 - - - - 10 - - 2.9 1024.8 0.0
26/10:00pm WNW 8 8 - - - - 10 - - 3.3 1024.6 0.0
26/09:30pm W 9 11 - - - - 10 - - 4.3 1024.3 0.0
26/09:00pm W 10 11 - - - - 10 - - 4.8 1024.0 0.0
26/08:30pm W 9 12 - - - - 10 - - 5.1 1023.6 0.0
26/08:00pm W 8 9 - - - - 10 - - 4.4 1023.3 0.0
26/07:30pm WSW 7 8 - - - - 10 Partly cloudy - 4.9 1023.2 0.0
26/07:00pm WSW 8 10 - - - - 10 Partly cloudy - 5.3 1022.8 0.0
26/06:30pm WSW 6 8 - - - - 10 - - 4.9 1022.3 0.0
26/06:00pm WNW 9 11 - - - - 10 Mostly clear - 5.8 1022.0 0.0
26/05:30pm W 7 9 - - - - 10 - - 6.3 1021.8 0.0
26/05:00pm WSW 9 13 - - - - 10 Partly cloudy - 7.6 1021.4 0.0
26/04:30pm W 9 12 - - - - 10 Partly cloudy - 8.3 1021.0 0.0
26/04:00pm WSW 11 16 - - - - 10 Partly cloudy - 8.9 1020.6 0.0
26/03:30pm WSW 13 19 - - - - 10 - - 10.1 1020.1 0.0
26/03:00pm W 12 16 - - - - 10 Partly cloudy - 11.1 1019.6 0.0
26/02:30pm W 9 13 - - - - 10 - - 11.4 1019.3 0.0
26/02:00pm WSW 15 21 - - - - 10 - - 10.8 1019.2 0.0
26/01:30pm WSW 16 23 - - - - 10 Partly cloudy - 11.4 1019.2 0.0
26/01:00pm W 11 15 - - - - 10 - - 11.5 1019.2 0.0
26/12:30pm W 13 17 - - - - 10 - - 10.4 1019.3 0.0
26/12:00pm WSW 12 15 - - - - 10 Mostly cloudy - 10.6 1019.3 0.0
26/11:30am WSW 14 21 - - - - 10 - - 10.6 1019.4 0.0
26/11:00am W 11 15 - - - - 10 Partly cloudy - 9.8 1019.5 0.0
26/10:30am W 12 14 - - - - 10 Partly cloudy - 8.7 1019.5 0.0
26/10:00am WSW 8 11 - - - - 10 Partly cloudy - 8.4 1019.0 0.0
26/09:30am W 6 7 - - - - 10 Partly cloudy - 7.8 1018.9 0.0
26/09:00am WNW 8 10 - - - - 10 Mostly clear Rain 7.7 1018.7 5.2
26/08:30am WNW 7 9 - - - - 10 Partly cloudy - 6.8 1018.5 5.2
26/08:00am WNW 6 7 - - - - 10 - - 5.2 1017.9 5.2
26/07:30am W 8 11 - - - - 10 - - 5.1 1017.5 5.2
26/07:00am WNW 7 7 - - - - 10 Partly cloudy - 4.1 1017.0 5.2
26/06:30am W 6 7 - - - - 10 - - 5.0 1016.7 5.2
26/06:00am W 8 10 - - - - 10 - - 6.0 1016.0 5.2
26/05:30am W 10 13 - - - - 10 - - 7.0 1015.4 5.2
26/05:00am W 9 12 - - - - 10 - - 7.2 1014.9 5.2
26/04:30am WSW 9 13 - - - - 10 Partly cloudy - 7.5 1014.3 5.2
26/04:00am W 9 11 - - - - 10 Partly cloudy - 7.9 1013.9 5.2
26/03:30am W 9 12 - - - - 10 Partly cloudy - 8.4 1013.5 5.2
26/03:00am W 9 11 - - - - 10 Cloudy Recent precip. 8.8 1013.3 5.2
26/02:30am W 13 18 - - - - 10 Partly cloudy - 9.5 1013.2 5.2
26/02:00am W 9 11 - - - - 10 Partly cloudy - 9.2 1012.6 5.2
26/01:30am W 11 15 - - - - 10 Partly cloudy - 9.6 1012.2 5.2
26/01:00am W 11 15 - - - - 10 Partly cloudy - 9.8 1012.1 5.2
26/12:41am W 17 26 - - - - 10 Partly cloudy - 10.0 1012.0 5.2
26/12:30am W 21 32 - - - - 5 Partly cloudy - 10.3 1011.9 5.0
26/12:29am W 20 32 - - - - 5 Partly cloudy - 10.3 1011.9 5.0
26/12:01am W 21 31 - - - - 9 Partly cloudy - 10.5 1011.4 4.6
26/12:00am WNW 21 31 - - - - 8 Mostly cloudy Showers 10.6 1011.4 4.6
 
Date/Time
EST
Wind Sea
Height
m
Swell Vis
km
Cloud Weather Temp
°C
Press
MSL
hPa
Rain since
9am
mm
Dir  Spd
kts
Gust
kts
Height
m
Period
s
Dir
25/11:34pm WNW 15 25 - - - - 10 Partly cloudy - 11.0 1011.1 4.4
25/11:30pm WNW 13 20 - - - - 10 Partly cloudy - 10.8 1011.2 4.4
25/11:15pm WNW 12 17 - - - - 10 Partly cloudy - 10.9 1011.2 4.4
25/11:00pm WNW 13 18 - - - - 10 Partly cloudy - 11.2 1011.5 4.4
25/10:59pm WNW 13 18 - - - - 10 Partly cloudy - 11.2 1011.5 4.4
25/10:30pm WNW 10 14 - - - - 10 Partly cloudy - 10.7 1011.6 4.2
25/10:00pm WNW 12 17 - - - - 10 Partly cloudy - 10.6 1011.8 4.2
25/09:54pm WNW 10 16 - - - - 10 Partly cloudy - 10.7 1011.8 4.2
25/09:44pm W 12 17 - - - - 9 Partly cloudy - 10.9 1011.9 4.2
25/09:43pm W 12 17 - - - - 10 Partly cloudy - 10.9 1011.9 4.2
25/09:30pm WNW 13 18 - - - - 9 Partly cloudy - 10.9 1011.8 4.0
25/09:08pm NW 10 14 - - - - 5 Partly cloudy - 11.1 1012.2 3.0
25/09:00pm WNW 8 10 - - - - 10 Mostly cloudy Rain 11.0 1012.1 2.4
25/08:30pm WNW 5 8 - - - - 10 Partly cloudy - 10.4 1012.1 2.2
25/08:00pm W 9 13 - - - - 10 Partly cloudy - 10.6 1012.1 2.2
25/07:30pm W 12 17 - - - - 10 Partly cloudy - 11.1 1012.2 2.2
25/07:00pm W 11 18 - - - - 10 Partly cloudy - 10.6 1011.9 2.2
25/06:54pm W 12 19 - - - - 10 Partly cloudy - 10.5 1011.9 2.2
25/06:44pm W 15 25 - - - - 5 Partly cloudy - 10.7 1011.8 2.2
25/06:30pm W 15 21 - - - - 6 Partly cloudy - 11.1 1011.8 2.2
25/06:10pm W 13 17 - - - - 5 Partly cloudy - 11.6 1011.5 1.4
25/06:00pm WNW 12 16 - - - - 10 Cloudy Showers 11.8 1011.3 1.4
25/05:30pm WNW 9 15 - - - - 10 Partly cloudy - 12.3 1011.1 1.4
25/05:00pm WNW 16 21 - - - - 10 Partly cloudy - 12.3 1011.0 1.4
25/04:30pm WNW 15 21 - - - - 10 Partly cloudy - 12.6 1010.9 1.4
25/04:00pm WNW 19 27 - - - - 10 Partly cloudy - 12.4 1010.9 1.4
25/03:50pm WNW 17 27 - - - - 10 Partly cloudy - 12.6 1010.9 1.4
25/03:30pm WNW 13 20 - - - - 10 Partly cloudy - 13.2 1010.8 1.4
25/03:00pm WNW 12 16 - - - - 10 Cloudy Showers 12.8 1010.6 1.2
25/02:30pm WNW 13 18 - - - - 10 Partly cloudy - 13.3 1010.7 1.2
25/02:00pm WNW 14 20 - - - - 10 Partly cloudy - 12.9 1011.0 1.2
25/01:30pm WNW 14 18 - - - - 10 Partly cloudy - 12.5 1011.1 1.2
25/01:00pm WNW 16 21 - - - - 10 Partly cloudy - 12.5 1011.3 1.2
25/12:30pm WNW 16 21 - - - - 10 Partly cloudy - 12.4 1011.3 1.0
25/12:00pm WNW 16 22 - - - - 10 Cloudy - 13.2 1011.3 1.0
25/11:30am WNW 12 19 - - - - 10 Partly cloudy - 12.3 1011.7 1.0
25/11:00am WNW 8 12 - - - - 10 Partly cloudy - 11.8 1012.1 1.0
25/10:30am WNW 10 14 - - - - 7 Partly cloudy - 10.8 1012.3 1.0
25/10:00am WNW 11 19 - - - - 10 Partly cloudy - 11.1 1012.2 0.6
25/09:54am WNW 10 19 - - - - 10 Partly cloudy - 10.9 1012.2 0.6
25/09:44am WNW 13 19 - - - - 5 Partly cloudy - 10.9 1012.1 0.4
25/09:30am WNW 13 21 - - - - 10 Partly cloudy - 11.2 1011.8 0.0
25/09:00am NW 9 12 - - - - 10 Mostly clear - 10.8 1011.4 0.4
25/08:30am WNW 7 9 - - - - 10 Partly cloudy - 9.7 1011.4 0.4
25/08:00am WNW 8 10 - - - - 10 Partly cloudy - 9.0 1011.4 0.4
25/07:30am NW 7 10 - - - - 10 Partly cloudy - 9.0 1011.2 0.4
25/07:00am WNW 6 8 - - - - 10 Partly cloudy - 8.5 1011.2 0.4
25/06:30am WNW 6 7 - - - - 10 Partly cloudy - 8.8 1011.0 0.4
25/06:00am NW 6 8 - - - - 10 Cloudy - 9.1 1010.7 0.4
25/05:30am WNW 6 8 - - - - 10 Partly cloudy - 9.1 1010.3 0.4
25/05:08am WNW 5 6 - - - - 10 Partly cloudy - 9.2 1010.4 0.4
25/05:00am WNW 5 8 - - - - 10 Partly cloudy - 9.4 1010.3 0.4
25/04:32am WNW 7 9 - - - - 10 Partly cloudy - 9.2 1010.2 0.4
25/04:30am WNW 7 9 - - - - 10 Partly cloudy - 9.4 1010.2 0.4
25/04:24am WNW 8 10 - - - - 10 Partly cloudy - 9.6 1010.2 0.4

Other formats

Comma delimited format used in spreadsheet applications
http://www.bom.gov.au/fwo/IDV60701/IDV60701.95957.axf

JavaScript Object Notation format (JSON) in row-major order
http://www.bom.gov.au/fwo/IDV60701/IDV60701.95957.json

Data quality

Most of these data are generated automatically and are frequently updated. Quality checks on data are not normally performed. It is possible for incorrect values to appear. Refer to information at About Latest Weather Observations and please check the disclaimer before using these data.